Bluarrow — CRXN — position and weather

sailwx.info

Track history (hours):
 
Tides and Currents Weather Stations Pressure Air Temp Water Temp Dewpoint Dewpoint Depression Visibility Wind Speed Wind Dir Waves Ship Positions

Bluarrow

Last reported at 2014-Aug-30 08:19 UTC. Time now 2014-Aug-31 08:37 UTC.
Position N 36°44' E 005°09'.

Length 126 m; draft 8.1 m.

Type: Cargo ship. MMSI: 255797000.

Date/timePositionNaut miles runAvg speedWind from/ knotsBaromVisibWave heightAir tempDewpointWater temp
2014-Aug-30 08:19N 36°44' E 005°09'0 0.0
2014-Aug-30 06:07N 36°44' E 005°09'0 0.1
2014-Aug-30 04:31N 36°44' E 005°09'0 0.0
2014-Aug-30 03:31N 36°44' E 005°09'0 0.0
2014-Aug-30 00:31N 36°44' E 005°09'0 0.0
2014-Aug-29 23:31N 36°44' E 005°09'0 0.0
2014-Aug-29 16:07N 36°44' E 005°09'0 0.0
2014-Aug-29 15:19N 36°44' E 005°09'0 0.0
2014-Aug-29 14:31N 36°44' E 005°09'0 0.0
2014-Aug-29 13:31N 36°44' E 005°09'0 0.0
2014-Aug-29 12:13N 36°44' E 005°09'0 0.0
2014-Aug-29 10:25N 36°44' E 005°09'0 0.0
2014-Aug-29 01:16N 36°44' E 005°09'0 0.0
2014-Aug-28 21:20N 36°44' E 005°09'0 0.0
2014-Aug-28 19:19N 36°44' E 005°09'0 0.0
2014-Aug-28 18:19N 36°44' E 005°09'0 0.0
2014-Aug-28 16:28N 36°44' E 005°09'0 0.0
2014-Aug-28 11:13N 36°44' E 005°09'0 0.0
2014-Aug-28 10:31N 36°44' E 005°09'0 0.0
2014-Aug-28 09:19N 36°44' E 005°09'0 0.0
2014-Aug-28 06:28N 36°44' E 005°09'0 0.0
2014-Aug-28 05:25N 36°44' E 005°09'0 0.0
2014-Aug-28 03:25N 36°44' E 005°09'0 0.0
2014-Aug-28 01:31N 36°44' E 005°09'0 0.0
2014-Aug-28 00:28N 36°44' E 005°09'0 0.0
2014-Aug-27 19:31N 36°44' E 005°09'0 0.0
2014-Aug-27 17:31N 36°44' E 005°09'0 0.0
2014-Aug-27 12:31N 36°44' E 005°09'0 0.0
2014-Aug-27 11:25N 36°44' E 005°09'0 0.0
2014-Aug-27 05:13N 36°44' E 005°09'0 0.0
2014-Aug-27 01:07N 36°44' E 005°09'0 0.0
2014-Aug-26 22:31N 36°44' E 005°09'0 0.0
2014-Aug-26 21:28N 36°44' E 005°09'0 0.0
2014-Aug-26 19:25N 36°44' E 005°09'0 0.0
2014-Aug-26 14:16N 36°44' E 005°09'0 0.0
2014-Aug-26 12:16N 36°44' E 005°09'0 0.0
2014-Aug-26 10:22N 36°44' E 005°09'0 0.0
2014-Aug-26 09:31N 36°44' E 005°09'0 0.0
2014-Aug-25 23:22N 36°44' E 005°09'0 0.0
2014-Aug-25 12:10N 36°44' E 005°09'0 0.0
2014-Aug-25 11:07N 36°44' E 005°09'0 0.0
2014-Aug-25 10:26N 36°44' E 005°09'  
2014-Aug-22 22:14N 36°14' W 002°29'710.2
2014-Aug-22 21:33N 36°13' W 002°38'1110.7
2014-Aug-22 20:33N 36°11' W 002°51'11911.8
2014-Aug-22 10:29N 35°55' W 005°17'3 2.7
2014-Aug-22 09:33N 35°54' W 005°19'0 0.0
2014-Aug-22 08:33N 35°54' W 005°19'0 0.0
2014-Aug-22 07:33N 35°54' W 005°19'0 0.0
2014-Aug-22 06:33N 35°54' W 005°19'0 0.0
2014-Aug-22 05:33N 35°54' W 005°19'3 2.8
2014-Aug-22 04:33N 35°56' W 005°21'123 9.5
2014-Aug-21 15:31N 36°15' W 007°52'1311.0
2014-Aug-21 14:20N 36°18' W 008°07'2010.9
2014-Aug-21 12:32N 36°23' W 008°31'5310.7
2014-Aug-21 07:33N 36°46' W 009°31'1110.7
2014-Aug-21 06:33N 36°56' W 009°35'1010.3
2014-Aug-21 05:33N 37°06' W 009°36'1010.6
2014-Aug-21 04:33N 37°16' W 009°31'1110.9
2014-Aug-21 03:33N 37°26' W 009°25'6 5.3
2014-Aug-21 02:29N 37°31' W 009°22'1 0.7
2014-Aug-21 01:32N 37°31' W 009°22'2 0.9
2014-Aug-20 23:24N 37°33' W 009°23'1 0.7
2014-Aug-20 22:33N 37°34' W 009°23'20 9.8
2014-Aug-20 20:34N 37°52' W 009°15'2511.0
2014-Aug-20 18:18N 38°15' W 009°04'810.9
2014-Aug-20 17:33N 38°23' W 009°00'10 9.6
2014-Aug-20 16:33N 38°31' W 008°54'1 0.5
2014-Aug-20 14:28N 38°31' W 008°52'0 0.0
2014-Aug-20 13:22N 38°31' W 008°52'0 0.0
2014-Aug-20 12:16N 38°31' W 008°52'0 0.0
2014-Aug-20 11:31N 38°31' W 008°52'0 0.0
2014-Aug-20 10:25N 38°31' W 008°52'0 0.0
2014-Aug-20 09:25N 38°31' W 008°52'0 0.0
2014-Aug-20 08:22N 38°31' W 008°52'  
Track history (hours):
 
Tides and Currents Weather Stations Pressure Air Temp Water Temp Dewpoint Dewpoint Depression Visibility Wind Speed Wind Dir Waves Ship Positions

Bluarrow

Last reported at 2014-Aug-30 08:19 UTC. Time now 2014-Aug-31 08:37 UTC.
Position N 36°44' E 005°09'.

Length 126 m; draft 8.1 m.

Type: Cargo ship. MMSI: 255797000.

Date/timePositionNaut miles runAvg speedWind from/ knotsBaromVisibWave heightAir tempDewpointWater temp
2014-Aug-30 08:19N 36°44' E 005°09'0 0.0
2014-Aug-30 06:07N 36°44' E 005°09'0 0.1
2014-Aug-30 04:31N 36°44' E 005°09'0 0.0
2014-Aug-30 03:31N 36°44' E 005°09'0 0.0
2014-Aug-30 00:31N 36°44' E 005°09'0 0.0
2014-Aug-29 23:31N 36°44' E 005°09'0 0.0
2014-Aug-29 16:07N 36°44' E 005°09'0 0.0
2014-Aug-29 15:19N 36°44' E 005°09'0 0.0
2014-Aug-29 14:31N 36°44' E 005°09'0 0.0
2014-Aug-29 13:31N 36°44' E 005°09'0 0.0
2014-Aug-29 12:13N 36°44' E 005°09'0 0.0
2014-Aug-29 10:25N 36°44' E 005°09'0 0.0
2014-Aug-29 01:16N 36°44' E 005°09'0 0.0
2014-Aug-28 21:20N 36°44' E 005°09'0 0.0
2014-Aug-28 19:19N 36°44' E 005°09'0 0.0
2014-Aug-28 18:19N 36°44' E 005°09'0 0.0
2014-Aug-28 16:28N 36°44' E 005°09'0 0.0
2014-Aug-28 11:13N 36°44' E 005°09'0 0.0
2014-Aug-28 10:31N 36°44' E 005°09'0 0.0
2014-Aug-28 09:19N 36°44' E 005°09'0 0.0
2014-Aug-28 06:28N 36°44' E 005°09'0 0.0
2014-Aug-28 05:25N 36°44' E 005°09'0 0.0
2014-Aug-28 03:25N 36°44' E 005°09'0 0.0
2014-Aug-28 01:31N 36°44' E 005°09'0 0.0
2014-Aug-28 00:28N 36°44' E 005°09'0 0.0
2014-Aug-27 19:31N 36°44' E 005°09'0 0.0
2014-Aug-27 17:31N 36°44' E 005°09'0 0.0
2014-Aug-27 12:31N 36°44' E 005°09'0 0.0
2014-Aug-27 11:25N 36°44' E 005°09'0 0.0
2014-Aug-27 05:13N 36°44' E 005°09'0 0.0
2014-Aug-27 01:07N 36°44' E 005°09'0 0.0
2014-Aug-26 22:31N 36°44' E 005°09'0 0.0
2014-Aug-26 21:28N 36°44' E 005°09'0 0.0
2014-Aug-26 19:25N 36°44' E 005°09'0 0.0
2014-Aug-26 14:16N 36°44' E 005°09'0 0.0
2014-Aug-26 12:16N 36°44' E 005°09'0 0.0
2014-Aug-26 10:22N 36°44' E 005°09'0 0.0
2014-Aug-26 09:31N 36°44' E 005°09'0 0.0
2014-Aug-25 23:22N 36°44' E 005°09'0 0.0
2014-Aug-25 12:10N 36°44' E 005°09'0 0.0
2014-Aug-25 11:07N 36°44' E 005°09'0 0.0
2014-Aug-25 10:26N 36°44' E 005°09'  
2014-Aug-22 22:14N 36°14' W 002°29'710.2
2014-Aug-22 21:33N 36°13' W 002°38'1110.7
2014-Aug-22 20:33N 36°11' W 002°51'11911.8
2014-Aug-22 10:29N 35°55' W 005°17'3 2.7
2014-Aug-22 09:33N 35°54' W 005°19'0 0.0
2014-Aug-22 08:33N 35°54' W 005°19'0 0.0
2014-Aug-22 07:33N 35°54' W 005°19'0 0.0
2014-Aug-22 06:33N 35°54' W 005°19'0 0.0
2014-Aug-22 05:33N 35°54' W 005°19'3 2.8
2014-Aug-22 04:33N 35°56' W 005°21'123 9.5
2014-Aug-21 15:31N 36°15' W 007°52'1311.0
2014-Aug-21 14:20N 36°18' W 008°07'2010.9
2014-Aug-21 12:32N 36°23' W 008°31'5310.7
2014-Aug-21 07:33N 36°46' W 009°31'1110.7
2014-Aug-21 06:33N 36°56' W 009°35'1010.3
2014-Aug-21 05:33N 37°06' W 009°36'1010.6
2014-Aug-21 04:33N 37°16' W 009°31'1110.9
2014-Aug-21 03:33N 37°26' W 009°25'6 5.3
2014-Aug-21 02:29N 37°31' W 009°22'1 0.7
2014-Aug-21 01:32N 37°31' W 009°22'2 0.9
2014-Aug-20 23:24N 37°33' W 009°23'1 0.7
2014-Aug-20 22:33N 37°34' W 009°23'20 9.8
2014-Aug-20 20:34N 37°52' W 009°15'2511.0
2014-Aug-20 18:18N 38°15' W 009°04'810.9
2014-Aug-20 17:33N 38°23' W 009°00'10 9.6
2014-Aug-20 16:33N 38°31' W 008°54'1 0.5
2014-Aug-20 14:28N 38°31' W 008°52'0 0.0
2014-Aug-20 13:22N 38°31' W 008°52'0 0.0
2014-Aug-20 12:16N 38°31' W 008°52'0 0.0
2014-Aug-20 11:31N 38°31' W 008°52'0 0.0
2014-Aug-20 10:25N 38°31' W 008°52'0 0.0
2014-Aug-20 09:25N 38°31' W 008°52'0 0.0
2014-Aug-20 08:22N 38°31' W 008°52'  

Dump ship's entire track history